sensor_id;sensor_type;location;lat;lon;timestamp;temperature;humidity
5278;DHT22;2662;51.194;6.614;2023-09-12T00:00:05;22.00;99.90
5278;DHT22;2662;51.194;6.614;2023-09-12T00:02:32;22.10;99.90
5278;DHT22;2662;51.194;6.614;2023-09-12T00:04:59;22.10;99.90
5278;DHT22;2662;51.194;6.614;2023-09-12T00:07:26;22.10;99.90
5278;DHT22;2662;51.194;6.614;2023-09-12T00:09:53;22.00;99.90
5278;DHT22;2662;51.194;6.614;2023-09-12T00:12:22;22.00;99.90
5278;DHT22;2662;51.194;6.614;2023-09-12T00:14:51;21.90;99.90
5278;DHT22;2662;51.194;6.614;2023-09-12T00:17:18;21.80;99.90
5278;DHT22;2662;51.194;6.614;2023-09-12T00:19:44;21.40;99.90
5278;DHT22;2662;51.194;6.614;2023-09-12T00:22:11;21.30;99.90
5278;DHT22;2662;51.194;6.614;2023-09-12T00:24:38;21.20;99.90
5278;DHT22;2662;51.194;6.614;2023-09-12T00:27:05;21.10;99.90
5278;DHT22;2662;51.194;6.614;2023-09-12T00:29:31;21.30;99.90
5278;DHT22;2662;51.194;6.614;2023-09-12T00:31:59;21.40;99.90
5278;DHT22;2662;51.194;6.614;2023-09-12T00:34:26;21.40;99.90
5278;DHT22;2662;51.194;6.614;2023-09-12T00:36:53;21.40;99.90
5278;DHT22;2662;51.194;6.614;2023-09-12T00:39:20;21.20;99.90
5278;DHT22;2662;51.194;6.614;2023-09-12T00:41:46;21.20;99.90
5278;DHT22;2662;51.194;6.614;2023-09-12T00:44:13;21.10;99.90
5278;DHT22;2662;51.194;6.614;2023-09-12T00:46:40;21.10;99.90
5278;DHT22;2662;51.194;6.614;2023-09-12T00:49:09;21.20;99.90
5278;DHT22;2662;51.194;6.614;2023-09-12T00:51:36;21.20;99.90
5278;DHT22;2662;51.194;6.614;2023-09-12T00:54:04;21.20;99.90
5278;DHT22;2662;51.194;6.614;2023-09-12T00:56:31;21.30;99.90
5278;DHT22;2662;51.194;6.614;2023-09-12T00:58:58;21.30;99.90
5278;DHT22;2662;51.194;6.614;2023-09-12T01:01:25;21.30;99.90
5278;DHT22;2662;51.194;6.614;2023-09-12T01:03:52;21.40;99.90
5278;DHT22;2662;51.194;6.614;2023-09-12T01:06:22;21.30;99.90
5278;DHT22;2662;51.194;6.614;2023-09-12T01:08:51;21.20;99.90
5278;DHT22;2662;51.194;6.614;2023-09-12T01:11:18;21.20;99.90
5278;DHT22;2662;51.194;6.614;2023-09-12T01:13:45;21.10;99.90
5278;DHT22;2662;51.194;6.614;2023-09-12T01:16:12;21.10;99.90
5278;DHT22;2662;51.194;6.614;2023-09-12T01:18:39;21.10;99.90
5278;DHT22;2662;51.194;6.614;2023-09-12T01:21:38;21.10;99.90
5278;DHT22;2662;51.194;6.614;2023-09-12T01:27:21;21.00;99.90
5278;DHT22;2662;51.194;6.614;2023-09-12T01:29:51;21.00;99.90
5278;DHT22;2662;51.194;6.614;2023-09-12T01:32:20;21.00;99.90
5278;DHT22;2662;51.194;6.614;2023-09-12T01:34:46;20.90;99.90
5278;DHT22;2662;51.194;6.614;2023-09-12T01:37:13;21.00;99.90
5278;DHT22;2662;51.194;6.614;2023-09-12T01:39:40;21.10;99.90
5278;DHT22;2662;51.194;6.614;2023-09-12T01:42:09;21.10;99.90
5278;DHT22;2662;51.194;6.614;2023-09-12T01:44:39;21.00;99.90
5278;DHT22;2662;51.194;6.614;2023-09-12T01:47:08;21.00;99.90
5278;DHT22;2662;51.194;6.614;2023-09-12T01:49:37;20.90;99.90
5278;DHT22;2662;51.194;6.614;2023-09-12T01:52:06;20.90;99.90
5278;DHT22;2662;51.194;6.614;2023-09-12T01:54:34;20.80;99.90
5278;DHT22;2662;51.194;6.614;2023-09-12T01:57:01;20.60;99.90
5278;DHT22;2662;51.194;6.614;2023-09-12T01:59:28;20.60;99.90
5278;DHT22;2662;51.194;6.614;2023-09-12T02:01:56;20.70;99.90
5278;DHT22;2662;51.194;6.614;2023-09-12T02:04:23;20.70;99.90
5278;DHT22;2662;51.194;6.614;2023-09-12T02:06:50;20.70;99.90
5278;DHT22;2662;51.194;6.614;2023-09-12T02:09:16;20.80;99.90
5278;DHT22;2662;51.194;6.614;2023-09-12T02:11:43;20.80;99.90
5278;DHT22;2662;51.194;6.614;2023-09-12T02:14:10;20.90;99.90
5278;DHT22;2662;51.194;6.614;2023-09-12T02:16:37;21.00;99.90
5278;DHT22;2662;51.194;6.614;2023-09-12T02:19:05;21.10;99.90
5278;DHT22;2662;51.194;6.614;2023-09-12T02:21:32;21.10;99.90
5278;DHT22;2662;51.194;6.614;2023-09-12T02:23:59;21.10;99.90
5278;DHT22;2662;51.194;6.614;2023-09-12T02:26:25;21.10;99.90
5278;DHT22;2662;51.194;6.614;2023-09-12T02:28:52;21.00;99.90
5278;DHT22;2662;51.194;6.614;2023-09-12T02:31:19;20.90;99.90
5278;DHT22;2662;51.194;6.614;2023-09-12T02:33:46;20.70;99.90
5278;DHT22;2662;51.194;6.614;2023-09-12T02:36:14;20.50;99.90
5278;DHT22;2662;51.194;6.614;2023-09-12T02:38:41;20.30;99.90
5278;DHT22;2662;51.194;6.614;2023-09-12T02:41:08;20.10;99.90
5278;DHT22;2662;51.194;6.614;2023-09-12T02:43:34;20.00;99.90
5278;DHT22;2662;51.194;6.614;2023-09-12T02:46:01;20.00;99.90
5278;DHT22;2662;51.194;6.614;2023-09-12T02:48:28;20.00;99.90
5278;DHT22;2662;51.194;6.614;2023-09-12T02:50:55;20.00;99.90
5278;DHT22;2662;51.194;6.614;2023-09-12T02:53:23;20.00;99.90
5278;DHT22;2662;51.194;6.614;2023-09-12T02:55:51;20.20;99.90
5278;DHT22;2662;51.194;6.614;2023-09-12T02:58:19;20.40;99.90
5278;DHT22;2662;51.194;6.614;2023-09-12T03:00:46;20.50;99.90
5278;DHT22;2662;51.194;6.614;2023-09-12T03:03:15;20.60;99.90
5278;DHT22;2662;51.194;6.614;2023-09-12T03:05:42;20.60;99.90
5278;DHT22;2662;51.194;6.614;2023-09-12T03:08:08;20.70;99.90
5278;DHT22;2662;51.194;6.614;2023-09-12T03:10:37;20.70;99.90
5278;DHT22;2662;51.194;6.614;2023-09-12T03:13:03;20.80;99.90
5278;DHT22;2662;51.194;6.614;2023-09-12T03:15:35;20.80;99.90
5278;DHT22;2662;51.194;6.614;2023-09-12T03:18:03;20.80;99.90
5278;DHT22;2662;51.194;6.614;2023-09-12T03:20:30;20.80;99.90
5278;DHT22;2662;51.194;6.614;2023-09-12T03:22:57;20.90;99.90
5278;DHT22;2662;51.194;6.614;2023-09-12T03:25:24;20.90;99.90
5278;DHT22;2662;51.194;6.614;2023-09-12T03:27:54;20.90;99.90
5278;DHT22;2662;51.194;6.614;2023-09-12T03:30:21;20.90;99.90
5278;DHT22;2662;51.194;6.614;2023-09-12T03:32:48;20.80;99.90
5278;DHT22;2662;51.194;6.614;2023-09-12T03:35:14;20.80;99.90
5278;DHT22;2662;51.194;6.614;2023-09-12T03:37:41;20.80;99.90
5278;DHT22;2662;51.194;6.614;2023-09-12T03:40:09;20.70;99.90
5278;DHT22;2662;51.194;6.614;2023-09-12T03:42:37;20.60;99.90
5278;DHT22;2662;51.194;6.614;2023-09-12T03:45:06;20.60;99.90
5278;DHT22;2662;51.194;6.614;2023-09-12T03:47:33;20.60;99.90
5278;DHT22;2662;51.194;6.614;2023-09-12T03:50:00;20.50;99.90
5278;DHT22;2662;51.194;6.614;2023-09-12T03:52:27;20.30;99.90
5278;DHT22;2662;51.194;6.614;2023-09-12T03:54:54;20.30;99.90
5278;DHT22;2662;51.194;6.614;2023-09-12T03:57:21;20.30;99.90
5278;DHT22;2662;51.194;6.614;2023-09-12T03:59:47;20.30;99.90
5278;DHT22;2662;51.194;6.614;2023-09-12T04:02:18;20.30;99.90
5278;DHT22;2662;51.194;6.614;2023-09-12T04:04:44;20.40;99.90
5278;DHT22;2662;51.194;6.614;2023-09-12T04:07:11;20.40;99.90
5278;DHT22;2662;51.194;6.614;2023-09-12T04:09:38;20.40;99.90
5278;DHT22;2662;51.194;6.614;2023-09-12T04:12:06;20.50;99.90
5278;DHT22;2662;51.194;6.614;2023-09-12T04:14:34;20.50;99.90
5278;DHT22;2662;51.194;6.614;2023-09-12T04:17:01;20.60;99.90
5278;DHT22;2662;51.194;6.614;2023-09-12T04:19:30;20.70;99.90
5278;DHT22;2662;51.194;6.614;2023-09-12T04:21:57;20.70;99.90
5278;DHT22;2662;51.194;6.614;2023-09-12T04:24:23;20.70;99.90
5278;DHT22;2662;51.194;6.614;2023-09-12T04:26:50;20.80;99.90
5278;DHT22;2662;51.194;6.614;2023-09-12T04:29:17;20.80;99.90
5278;DHT22;2662;51.194;6.614;2023-09-12T04:31:43;20.90;99.90
5278;DHT22;2662;51.194;6.614;2023-09-12T04:34:10;20.90;99.90
5278;DHT22;2662;51.194;6.614;2023-09-12T04:36:38;20.90;99.90
5278;DHT22;2662;51.194;6.614;2023-09-12T04:39:05;20.90;99.90
5278;DHT22;2662;51.194;6.614;2023-09-12T04:41:32;20.90;99.90
5278;DHT22;2662;51.194;6.614;2023-09-12T04:43:58;21.10;99.90
5278;DHT22;2662;51.194;6.614;2023-09-12T04:46:27;21.00;99.90
5278;DHT22;2662;51.194;6.614;2023-09-12T04:48:54;21.00;99.90
5278;DHT22;2662;51.194;6.614;2023-09-12T04:51:21;21.00;99.90
5278;DHT22;2662;51.194;6.614;2023-09-12T04:53:49;21.00;99.90
5278;DHT22;2662;51.194;6.614;2023-09-12T04:56:17;21.00;99.90
5278;DHT22;2662;51.194;6.614;2023-09-12T04:58:44;20.90;99.90
5278;DHT22;2662;51.194;6.614;2023-09-12T05:01:10;20.80;99.90
5278;DHT22;2662;51.194;6.614;2023-09-12T05:03:37;20.80;99.90
5278;DHT22;2662;51.194;6.614;2023-09-12T05:06:04;20.80;99.90
5278;DHT22;2662;51.194;6.614;2023-09-12T05:08:30;20.80;99.90
5278;DHT22;2662;51.194;6.614;2023-09-12T05:10:58;20.90;99.90
5278;DHT22;2662;51.194;6.614;2023-09-12T05:13:25;20.90;99.90
5278;DHT22;2662;51.194;6.614;2023-09-12T05:15:52;21.00;99.90
5278;DHT22;2662;51.194;6.614;2023-09-12T05:18:18;21.00;99.90
5278;DHT22;2662;51.194;6.614;2023-09-12T05:20:45;21.00;99.90
5278;DHT22;2662;51.194;6.614;2023-09-12T05:23:12;20.90;99.90
5278;DHT22;2662;51.194;6.614;2023-09-12T05:25:39;21.00;99.90
5278;DHT22;2662;51.194;6.614;2023-09-12T05:28:07;21.00;99.90
5278;DHT22;2662;51.194;6.614;2023-09-12T05:30:33;21.00;99.90
5278;DHT22;2662;51.194;6.614;2023-09-12T05:33:01;21.00;99.90
5278;DHT22;2662;51.194;6.614;2023-09-12T05:35:28;21.00;99.90
5278;DHT22;2662;51.194;6.614;2023-09-12T05:37:54;21.10;99.90
5278;DHT22;2662;51.194;6.614;2023-09-12T05:40:21;21.10;99.90
5278;DHT22;2662;51.194;6.614;2023-09-12T05:42:48;21.10;99.90
5278;DHT22;2662;51.194;6.614;2023-09-12T05:45:16;21.10;99.90
5278;DHT22;2662;51.194;6.614;2023-09-12T05:47:43;20.90;99.90
5278;DHT22;2662;51.194;6.614;2023-09-12T05:50:09;20.70;99.90
5278;DHT22;2662;51.194;6.614;2023-09-12T05:52:37;20.40;99.90
5278;DHT22;2662;51.194;6.614;2023-09-12T05:55:04;20.20;99.90
5278;DHT22;2662;51.194;6.614;2023-09-12T05:57:31;20.10;99.90
5278;DHT22;2662;51.194;6.614;2023-09-12T05:59:59;19.70;99.90
5278;DHT22;2662;51.194;6.614;2023-09-12T06:02:28;19.60;99.90
5278;DHT22;2662;51.194;6.614;2023-09-12T06:04:56;19.70;99.90
5278;DHT22;2662;51.194;6.614;2023-09-12T06:07:22;19.80;99.90
5278;DHT22;2662;51.194;6.614;2023-09-12T06:09:50;19.70;99.90
5278;DHT22;2662;51.194;6.614;2023-09-12T06:12:17;19.80;99.90
5278;DHT22;2662;51.194;6.614;2023-09-12T06:14:43;19.90;99.90
5278;DHT22;2662;51.194;6.614;2023-09-12T06:17:10;20.00;99.90
5278;DHT22;2662;51.194;6.614;2023-09-12T06:19:38;20.10;99.90
5278;DHT22;2662;51.194;6.614;2023-09-12T06:22:05;20.10;99.90
5278;DHT22;2662;51.194;6.614;2023-09-12T06:24:32;20.00;99.90
5278;DHT22;2662;51.194;6.614;2023-09-12T06:26:59;19.90;99.90
5278;DHT22;2662;51.194;6.614;2023-09-12T06:29:25;20.00;99.90
5278;DHT22;2662;51.194;6.614;2023-09-12T06:31:52;20.10;99.90
5278;DHT22;2662;51.194;6.614;2023-09-12T06:34:20;20.20;99.90
5278;DHT22;2662;51.194;6.614;2023-09-12T06:36:48;20.30;99.90
5278;DHT22;2662;51.194;6.614;2023-09-12T06:39:15;20.30;99.90
5278;DHT22;2662;51.194;6.614;2023-09-12T06:41:42;20.40;99.90
5278;DHT22;2662;51.194;6.614;2023-09-12T06:44:09;20.40;99.90
5278;DHT22;2662;51.194;6.614;2023-09-12T06:46:35;20.60;99.90
5278;DHT22;2662;51.194;6.614;2023-09-12T06:59:11;20.90;99.90
5278;DHT22;2662;51.194;6.614;2023-09-12T07:01:37;20.90;99.90
5278;DHT22;2662;51.194;6.614;2023-09-12T07:04:04;21.00;99.90
5278;DHT22;2662;51.194;6.614;2023-09-12T07:06:31;21.10;99.90
5278;DHT22;2662;51.194;6.614;2023-09-12T07:08:59;21.30;99.90
5278;DHT22;2662;51.194;6.614;2023-09-12T07:11:25;21.50;99.90
5278;DHT22;2662;51.194;6.614;2023-09-12T07:13:52;21.70;99.90
5278;DHT22;2662;51.194;6.614;2023-09-12T07:16:20;21.90;99.90
5278;DHT22;2662;51.194;6.614;2023-09-12T07:18:48;22.20;99.90
5278;DHT22;2662;51.194;6.614;2023-09-12T07:21:15;22.40;99.90
5278;DHT22;2662;51.194;6.614;2023-09-12T07:23:42;22.40;99.90
5278;DHT22;2662;51.194;6.614;2023-09-12T07:26:12;22.70;99.90
5278;DHT22;2662;51.194;6.614;2023-09-12T07:28:40;23.10;99.90
5278;DHT22;2662;51.194;6.614;2023-09-12T07:31:07;23.50;99.90
5278;DHT22;2662;51.194;6.614;2023-09-12T07:33:35;24.20;99.90
5278;DHT22;2662;51.194;6.614;2023-09-12T07:36:02;24.40;99.90
5278;DHT22;2662;51.194;6.614;2023-09-12T07:38:29;24.30;99.90
5278;DHT22;2662;51.194;6.614;2023-09-12T07:40:56;24.50;99.90
5278;DHT22;2662;51.194;6.614;2023-09-12T07:43:23;24.80;99.90
5278;DHT22;2662;51.194;6.614;2023-09-12T07:45:55;24.80;99.90
5278;DHT22;2662;51.194;6.614;2023-09-12T07:48:24;24.70;99.90
5278;DHT22;2662;51.194;6.614;2023-09-12T07:50:52;24.90;99.90
5278;DHT22;2662;51.194;6.614;2023-09-12T07:53:19;25.10;99.90
5278;DHT22;2662;51.194;6.614;2023-09-12T07:55:46;25.10;99.90
5278;DHT22;2662;51.194;6.614;2023-09-12T07:58:13;25.40;99.90
5278;DHT22;2662;51.194;6.614;2023-09-12T08:00:40;26.60;99.90
5278;DHT22;2662;51.194;6.614;2023-09-12T08:03:07;28.10;99.90
5278;DHT22;2662;51.194;6.614;2023-09-12T08:05:33;29.10;99.90
5278;DHT22;2662;51.194;6.614;2023-09-12T08:08:02;29.50;99.90
5278;DHT22;2662;51.194;6.614;2023-09-12T08:10:29;29.80;99.90
5278;DHT22;2662;51.194;6.614;2023-09-12T08:12:55;30.10;99.90
5278;DHT22;2662;51.194;6.614;2023-09-12T08:15:22;30.20;99.90
5278;DHT22;2662;51.194;6.614;2023-09-12T08:17:49;30.80;99.90
5278;DHT22;2662;51.194;6.614;2023-09-12T08:20:17;31.30;99.90
5278;DHT22;2662;51.194;6.614;2023-09-12T08:22:44;32.10;99.90
5278;DHT22;2662;51.194;6.614;2023-09-12T08:25:12;32.90;99.90
5278;DHT22;2662;51.194;6.614;2023-09-12T08:27:40;33.70;99.90
5278;DHT22;2662;51.194;6.614;2023-09-12T08:30:08;34.20;99.90
5278;DHT22;2662;51.194;6.614;2023-09-12T08:32:35;35.00;99.90
5278;DHT22;2662;51.194;6.614;2023-09-12T08:35:05;35.70;99.90
5278;DHT22;2662;51.194;6.614;2023-09-12T08:37:32;36.40;99.90
5278;DHT22;2662;51.194;6.614;2023-09-12T08:39:59;36.40;99.90
5278;DHT22;2662;51.194;6.614;2023-09-12T08:42:27;36.70;99.90
5278;DHT22;2662;51.194;6.614;2023-09-12T08:44:54;36.60;99.90
5278;DHT22;2662;51.194;6.614;2023-09-12T08:47:22;36.50;99.90
5278;DHT22;2662;51.194;6.614;2023-09-12T08:49:49;36.90;99.90
5278;DHT22;2662;51.194;6.614;2023-09-12T08:52:16;36.90;99.90
5278;DHT22;2662;51.194;6.614;2023-09-12T08:54:43;36.40;99.90
5278;DHT22;2662;51.194;6.614;2023-09-12T08:57:10;36.80;99.90
5278;DHT22;2662;51.194;6.614;2023-09-12T08:59:40;36.80;99.90
5278;DHT22;2662;51.194;6.614;2023-09-12T09:02:09;37.00;99.90
5278;DHT22;2662;51.194;6.614;2023-09-12T09:04:38;36.80;99.90
5278;DHT22;2662;51.194;6.614;2023-09-12T09:07:06;36.40;99.90
5278;DHT22;2662;51.194;6.614;2023-09-12T09:09:34;35.80;99.90
5278;DHT22;2662;51.194;6.614;2023-09-12T09:12:01;36.20;99.90
5278;DHT22;2662;51.194;6.614;2023-09-12T09:14:29;36.10;99.90
5278;DHT22;2662;51.194;6.614;2023-09-12T09:16:58;35.50;99.90
5278;DHT22;2662;51.194;6.614;2023-09-12T09:19:40;35.30;99.90
5278;DHT22;2662;51.194;6.614;2023-09-12T09:22:07;35.30;99.90
5278;DHT22;2662;51.194;6.614;2023-09-12T09:24:34;35.30;99.90
5278;DHT22;2662;51.194;6.614;2023-09-12T09:27:00;36.00;99.90
5278;DHT22;2662;51.194;6.614;2023-09-12T09:29:28;35.60;99.90
5278;DHT22;2662;51.194;6.614;2023-09-12T09:31:59;35.00;99.90
5278;DHT22;2662;51.194;6.614;2023-09-12T09:34:27;34.80;99.90
5278;DHT22;2662;51.194;6.614;2023-09-12T09:36:56;34.70;99.90
5278;DHT22;2662;51.194;6.614;2023-09-12T09:39:24;34.60;99.90
5278;DHT22;2662;51.194;6.614;2023-09-12T09:41:52;34.80;99.90
5278;DHT22;2662;51.194;6.614;2023-09-12T09:44:20;35.10;99.90
5278;DHT22;2662;51.194;6.614;2023-09-12T09:46:50;34.50;99.90
5278;DHT22;2662;51.194;6.614;2023-09-12T09:49:20;33.70;99.90
5278;DHT22;2662;51.194;6.614;2023-09-12T09:51:47;32.40;99.90
5278;DHT22;2662;51.194;6.614;2023-09-12T09:54:15;32.50;99.90
5278;DHT22;2662;51.194;6.614;2023-09-12T09:56:45;32.90;99.90
5278;DHT22;2662;51.194;6.614;2023-09-12T09:59:14;32.80;99.90
5278;DHT22;2662;51.194;6.614;2023-09-12T10:01:43;32.80;99.90
5278;DHT22;2662;51.194;6.614;2023-09-12T10:04:11;32.80;99.90
5278;DHT22;2662;51.194;6.614;2023-09-12T10:06:43;33.10;99.90
5278;DHT22;2662;51.194;6.614;2023-09-12T10:09:11;33.10;99.90
5278;DHT22;2662;51.194;6.614;2023-09-12T10:11:39;32.90;99.90
5278;DHT22;2662;51.194;6.614;2023-09-12T10:14:07;32.60;99.90
5278;DHT22;2662;51.194;6.614;2023-09-12T10:16:35;32.30;99.90
5278;DHT22;2662;51.194;6.614;2023-09-12T10:19:09;32.50;99.90
5278;DHT22;2662;51.194;6.614;2023-09-12T10:21:45;32.80;99.90
5278;DHT22;2662;51.194;6.614;2023-09-12T10:24:14;32.80;99.90
5278;DHT22;2662;51.194;6.614;2023-09-12T10:26:41;32.30;99.90
5278;DHT22;2662;51.194;6.614;2023-09-12T10:29:12;31.60;99.90
5278;DHT22;2662;51.194;6.614;2023-09-12T10:31:39;30.90;99.90
5278;DHT22;2662;51.194;6.614;2023-09-12T10:34:07;30.30;99.90
5278;DHT22;2662;51.194;6.614;2023-09-12T10:36:36;30.30;99.90
5278;DHT22;2662;51.194;6.614;2023-09-12T10:39:06;30.50;99.90
5278;DHT22;2662;51.194;6.614;2023-09-12T10:41:37;30.20;99.90
5278;DHT22;2662;51.194;6.614;2023-09-12T10:44:08;30.20;99.90
5278;DHT22;2662;51.194;6.614;2023-09-12T10:46:37;30.30;99.90
5278;DHT22;2662;51.194;6.614;2023-09-12T10:49:06;29.60;99.90
5278;DHT22;2662;51.194;6.614;2023-09-12T10:51:36;29.30;99.90
5278;DHT22;2662;51.194;6.614;2023-09-12T10:54:05;29.40;99.90
5278;DHT22;2662;51.194;6.614;2023-09-12T10:56:33;28.50;99.90
5278;DHT22;2662;51.194;6.614;2023-09-12T10:59:10;28.30;99.90
5278;DHT22;2662;51.194;6.614;2023-09-12T11:01:39;28.30;99.90
5278;DHT22;2662;51.194;6.614;2023-09-12T11:04:30;28.30;99.90
5278;DHT22;2662;51.194;6.614;2023-09-12T11:07:30;27.90;99.90
5278;DHT22;2662;51.194;6.614;2023-09-12T11:10:34;27.80;99.90
5278;DHT22;2662;51.194;6.614;2023-09-12T11:13:37;27.90;99.90
5278;DHT22;2662;51.194;6.614;2023-09-12T11:16:12;27.90;99.90
5278;DHT22;2662;51.194;6.614;2023-09-12T11:19:12;27.80;99.90
5278;DHT22;2662;51.194;6.614;2023-09-12T11:21:39;27.60;99.90
5278;DHT22;2662;51.194;6.614;2023-09-12T11:24:06;27.60;99.90
5278;DHT22;2662;51.194;6.614;2023-09-12T11:26:34;27.40;99.90
5278;DHT22;2662;51.194;6.614;2023-09-12T11:29:10;27.50;99.90
5278;DHT22;2662;51.194;6.614;2023-09-12T11:31:38;27.70;99.90
5278;DHT22;2662;51.194;6.614;2023-09-12T11:34:08;27.80;99.90
5278;DHT22;2662;51.194;6.614;2023-09-12T11:36:39;27.80;99.90
5278;DHT22;2662;51.194;6.614;2023-09-12T11:39:22;28.00;99.90
5278;DHT22;2662;51.194;6.614;2023-09-12T11:41:51;28.20;99.90
5278;DHT22;2662;51.194;6.614;2023-09-12T11:44:19;27.90;99.90
5278;DHT22;2662;51.194;6.614;2023-09-12T11:46:48;27.90;99.90
5278;DHT22;2662;51.194;6.614;2023-09-12T11:49:15;27.90;99.90
5278;DHT22;2662;51.194;6.614;2023-09-12T11:51:49;27.80;99.90
5278;DHT22;2662;51.194;6.614;2023-09-12T11:54:18;27.80;99.90
5278;DHT22;2662;51.194;6.614;2023-09-12T11:56:47;27.80;99.90
5278;DHT22;2662;51.194;6.614;2023-09-12T11:59:15;27.90;99.90
5278;DHT22;2662;51.194;6.614;2023-09-12T12:01:44;28.00;99.90
5278;DHT22;2662;51.194;6.614;2023-09-12T12:04:12;28.20;99.90
5278;DHT22;2662;51.194;6.614;2023-09-12T12:06:39;28.40;99.90
5278;DHT22;2662;51.194;6.614;2023-09-12T12:09:06;28.40;99.90
5278;DHT22;2662;51.194;6.614;2023-09-12T12:11:33;28.40;99.90
5278;DHT22;2662;51.194;6.614;2023-09-12T12:14:12;28.30;99.90
5278;DHT22;2662;51.194;6.614;2023-09-12T12:16:42;28.30;99.90
5278;DHT22;2662;51.194;6.614;2023-09-12T12:19:09;28.20;99.90
5278;DHT22;2662;51.194;6.614;2023-09-12T12:21:37;28.10;99.90
5278;DHT22;2662;51.194;6.614;2023-09-12T12:24:05;28.00;99.90
5278;DHT22;2662;51.194;6.614;2023-09-12T12:26:32;28.10;99.90
5278;DHT22;2662;51.194;6.614;2023-09-12T12:28:59;28.20;99.90
5278;DHT22;2662;51.194;6.614;2023-09-12T12:31:28;28.30;99.90
5278;DHT22;2662;51.194;6.614;2023-09-12T12:33:56;28.20;99.90
5278;DHT22;2662;51.194;6.614;2023-09-12T12:36:25;27.90;99.90
5278;DHT22;2662;51.194;6.614;2023-09-12T12:38:52;27.60;99.90
5278;DHT22;2662;51.194;6.614;2023-09-12T12:41:23;27.50;99.90
5278;DHT22;2662;51.194;6.614;2023-09-12T12:43:51;27.70;99.90
5278;DHT22;2662;51.194;6.614;2023-09-12T12:46:21;27.80;99.90
5278;DHT22;2662;51.194;6.614;2023-09-12T12:48:48;27.80;99.90
5278;DHT22;2662;51.194;6.614;2023-09-12T12:51:17;27.50;99.90
5278;DHT22;2662;51.194;6.614;2023-09-12T12:53:46;27.50;99.90
5278;DHT22;2662;51.194;6.614;2023-09-12T12:56:16;27.60;99.90
5278;DHT22;2662;51.194;6.614;2023-09-12T12:58:51;27.80;99.90
5278;DHT22;2662;51.194;6.614;2023-09-12T13:01:18;27.80;99.90
5278;DHT22;2662;51.194;6.614;2023-09-12T13:03:45;28.00;99.90
5278;DHT22;2662;51.194;6.614;2023-09-12T13:06:12;28.20;99.90
5278;DHT22;2662;51.194;6.614;2023-09-12T13:08:44;28.30;99.90
5278;DHT22;2662;51.194;6.614;2023-09-12T13:11:12;28.50;99.90
5278;DHT22;2662;51.194;6.614;2023-09-12T13:13:40;28.40;99.90
5278;DHT22;2662;51.194;6.614;2023-09-12T13:16:08;28.60;99.90
5278;DHT22;2662;51.194;6.614;2023-09-12T13:18:36;28.60;99.90
5278;DHT22;2662;51.194;6.614;2023-09-12T13:21:04;28.70;99.90
5278;DHT22;2662;51.194;6.614;2023-09-12T13:23:32;28.80;99.90
5278;DHT22;2662;51.194;6.614;2023-09-12T13:26:01;29.00;99.90
5278;DHT22;2662;51.194;6.614;2023-09-12T13:28:29;28.30;99.90
5278;DHT22;2662;51.194;6.614;2023-09-12T13:30:55;28.20;99.90
5278;DHT22;2662;51.194;6.614;2023-09-12T13:33:22;28.00;99.90
5278;DHT22;2662;51.194;6.614;2023-09-12T13:35:49;28.30;99.90
5278;DHT22;2662;51.194;6.614;2023-09-12T13:38:16;28.30;99.90
5278;DHT22;2662;51.194;6.614;2023-09-12T13:40:45;28.10;99.90
5278;DHT22;2662;51.194;6.614;2023-09-12T13:43:14;27.80;99.90
5278;DHT22;2662;51.194;6.614;2023-09-12T13:45:41;27.80;99.90
5278;DHT22;2662;51.194;6.614;2023-09-12T13:48:08;28.00;99.90
5278;DHT22;2662;51.194;6.614;2023-09-12T13:50:34;28.00;99.90
5278;DHT22;2662;51.194;6.614;2023-09-12T13:53:02;28.10;99.90
5278;DHT22;2662;51.194;6.614;2023-09-12T13:55:32;27.70;99.90
5278;DHT22;2662;51.194;6.614;2023-09-12T13:57:59;27.50;99.90
5278;DHT22;2662;51.194;6.614;2023-09-12T14:00:27;27.30;99.90
5278;DHT22;2662;51.194;6.614;2023-09-12T14:02:54;27.20;99.90
5278;DHT22;2662;51.194;6.614;2023-09-12T14:05:21;27.40;99.90
5278;DHT22;2662;51.194;6.614;2023-09-12T14:07:48;27.60;99.90
5278;DHT22;2662;51.194;6.614;2023-09-12T14:10:15;27.70;99.90
5278;DHT22;2662;51.194;6.614;2023-09-12T14:12:42;27.60;99.90
5278;DHT22;2662;51.194;6.614;2023-09-12T14:15:10;27.60;99.90
5278;DHT22;2662;51.194;6.614;2023-09-12T14:17:40;27.60;99.90
5278;DHT22;2662;51.194;6.614;2023-09-12T14:20:08;27.50;99.90
5278;DHT22;2662;51.194;6.614;2023-09-12T14:22:36;27.50;99.90
5278;DHT22;2662;51.194;6.614;2023-09-12T14:25:02;27.50;99.90
5278;DHT22;2662;51.194;6.614;2023-09-12T14:27:29;27.60;99.90
5278;DHT22;2662;51.194;6.614;2023-09-12T14:29:56;27.40;99.90
5278;DHT22;2662;51.194;6.614;2023-09-12T14:32:24;27.50;99.90
5278;DHT22;2662;51.194;6.614;2023-09-12T14:34:52;27.70;99.90
5278;DHT22;2662;51.194;6.614;2023-09-12T14:37:19;27.70;99.90
5278;DHT22;2662;51.194;6.614;2023-09-12T14:39:48;27.80;99.90
5278;DHT22;2662;51.194;6.614;2023-09-12T14:42:14;27.90;99.90
5278;DHT22;2662;51.194;6.614;2023-09-12T14:44:42;28.10;99.90
5278;DHT22;2662;51.194;6.614;2023-09-12T14:47:09;28.30;99.90
5278;DHT22;2662;51.194;6.614;2023-09-12T14:49:36;28.60;99.90
5278;DHT22;2662;51.194;6.614;2023-09-12T14:52:04;28.70;99.90
5278;DHT22;2662;51.194;6.614;2023-09-12T14:54:31;28.70;99.90
5278;DHT22;2662;51.194;6.614;2023-09-12T14:56:58;28.60;99.90
5278;DHT22;2662;51.194;6.614;2023-09-12T14:59:25;28.60;99.90
5278;DHT22;2662;51.194;6.614;2023-09-12T15:01:51;28.70;99.90
5278;DHT22;2662;51.194;6.614;2023-09-12T15:04:18;28.70;99.90
5278;DHT22;2662;51.194;6.614;2023-09-12T15:06:45;28.70;99.90
5278;DHT22;2662;51.194;6.614;2023-09-12T15:09:13;28.40;99.90
5278;DHT22;2662;51.194;6.614;2023-09-12T15:11:40;28.20;99.90
5278;DHT22;2662;51.194;6.614;2023-09-12T15:14:06;28.00;99.90
5278;DHT22;2662;51.194;6.614;2023-09-12T15:16:33;27.80;99.90
5278;DHT22;2662;51.194;6.614;2023-09-12T15:19:01;27.70;99.90
5278;DHT22;2662;51.194;6.614;2023-09-12T15:21:28;27.70;99.90
5278;DHT22;2662;51.194;6.614;2023-09-12T15:23:54;27.80;99.90
5278;DHT22;2662;51.194;6.614;2023-09-12T15:26:22;27.70;99.90
5278;DHT22;2662;51.194;6.614;2023-09-12T15:28:49;27.70;99.90
5278;DHT22;2662;51.194;6.614;2023-09-12T15:31:16;27.60;99.90
5278;DHT22;2662;51.194;6.614;2023-09-12T15:33:43;27.60;99.90
5278;DHT22;2662;51.194;6.614;2023-09-12T15:36:10;27.60;99.90
5278;DHT22;2662;51.194;6.614;2023-09-12T15:38:37;27.60;99.90
5278;DHT22;2662;51.194;6.614;2023-09-12T15:41:03;27.60;99.90
5278;DHT22;2662;51.194;6.614;2023-09-12T15:43:34;27.60;99.90
5278;DHT22;2662;51.194;6.614;2023-09-12T15:46:01;27.60;99.90
5278;DHT22;2662;51.194;6.614;2023-09-12T15:48:28;27.60;99.90
5278;DHT22;2662;51.194;6.614;2023-09-12T15:50:55;27.40;99.90
5278;DHT22;2662;51.194;6.614;2023-09-12T15:53:22;27.40;99.90
5278;DHT22;2662;51.194;6.614;2023-09-12T15:55:49;27.20;99.90
5278;DHT22;2662;51.194;6.614;2023-09-12T15:58:17;27.20;99.90
5278;DHT22;2662;51.194;6.614;2023-09-12T16:00:45;27.30;99.90
5278;DHT22;2662;51.194;6.614;2023-09-12T16:03:12;27.30;99.90
5278;DHT22;2662;51.194;6.614;2023-09-12T16:05:39;27.30;99.90
5278;DHT22;2662;51.194;6.614;2023-09-12T16:08:06;27.10;99.90
5278;DHT22;2662;51.194;6.614;2023-09-12T16:10:32;27.10;99.90
5278;DHT22;2662;51.194;6.614;2023-09-12T16:12:59;27.20;99.90
5278;DHT22;2662;51.194;6.614;2023-09-12T16:15:26;27.10;99.90
5278;DHT22;2662;51.194;6.614;2023-09-12T16:17:54;27.10;99.90
5278;DHT22;2662;51.194;6.614;2023-09-12T16:20:21;26.90;99.90